This is the latest recevied weather packets stored in our database for station/object K0BL. If no packets are shown the sender has not sent any weather packets the latest 10 day(s).
| Time | Temp. | Humidity | Pressure | Rain* | Wind** | Luminosity | Snow |
|---|---|---|---|---|---|---|---|
| 1777648694 | 13.33° C | 49% | 1014.7 hPa | 0 mm | - | 688 W/m² | - |
| 1777647489 | 12.78° C | 54% | 1014.8 hPa | 0 mm | - | 594 W/m² | - |
| 1777643890 | 10° C | 61% | 1015.3 hPa | 0 mm | - | 486 W/m² | - |
| 1777643287 | 9.44° C | 63% | 1015.3 hPa | 0 mm | - | 403 W/m² | - |
| 1777640584 | 7.78° C | 71% | 1015.6 hPa | 0 mm | - | 121 W/m² | - |
| 1777639384 | 6.11° C | 79% | 1015.6 hPa | 0 mm | - | 172 W/m² | - |
| 1777637885 | 3.33° C | 89% | 1015.4 hPa | 0 mm | - | 59 W/m² | - |
| 1777632779 | 2.22° C | 92% | 1014.7 hPa | 0 mm | - | 0 W/m² | - |
| 1777632477 | 2.22° C | 93% | 1014.8 hPa | 0 mm | - | 0 W/m² | - |
| 1777630971 | 2.22° C | 92% | 1014.7 hPa | 0 mm | - | 0 W/m² | - |
| 1777629771 | 2.22° C | 91% | 1014.9 hPa | 0 mm | - | 0 W/m² | - |
| 1777628868 | 2.22° C | 90% | 1014.8 hPa | 0 mm | - | 0 W/m² | - |
| 1777627362 | 2.22° C | 90% | 1014.9 hPa | 0 mm | - | 0 W/m² | - |
| 1777625257 | 2.78° C | 88% | 1014.9 hPa | 0 mm | - | 0 W/m² | - |
| 1777622550 | 3.33° C | 82% | 1014.7 hPa | 0 mm | - | 0 W/m² | - |
| 1777622251 | 3.33° C | 82% | 1014.8 hPa | 0 mm | - | 0 W/m² | - |
| 1777621651 | 3.89° C | 81% | 1014.7 hPa | 0 mm | - | 0 W/m² | - |
| 1777620748 | 3.89° C | 79% | 1014.9 hPa | 0 mm | - | 0 W/m² | - |
| 1777618644 | 5° C | 76% | 1015.2 hPa | 0 mm | - | 0 W/m² | - |
| 1777615937 | 5.56° C | 69% | 1015.6 hPa | 0 mm | - | 0 W/m² | - |
| 1777615036 | 5.56° C | 73% | 1015.5 hPa | 0 mm | - | 0 W/m² | - |
| 1777611730 | 6.67° C | 67% | 1015.2 hPa | 0 mm | - | 0 W/m² | - |
| 1777611126 | 7.22° C | 65% | 1015.2 hPa | 0 mm | - | 0 W/m² | - |
| 1777605114 | 10° C | 53% | 1015.1 hPa | 0 mm | - | 0 W/m² | - |
| 1777601212 | 11.11° C | 48% | 1014.3 hPa | 0 mm | - | 0 W/m² | - |
* Rain latest hour (hover to see other rain measurements)
** Current wind speed in m/s (hover to see current wind gust speed)